sensor_id;sensor_type;location;lat;lon;timestamp;P1;durP1;ratioP1;P2;durP2;ratioP2
62479;SDS011;48526;48.846;2.322;2023-01-08T00:01:47;7.00;;;4.00;;
62479;SDS011;48526;48.846;2.322;2023-01-08T00:04:13;7.00;;;5.25;;
62479;SDS011;48526;48.846;2.322;2023-01-08T00:06:39;6.75;;;5.00;;
62479;SDS011;48526;48.846;2.322;2023-01-08T00:09:05;5.25;;;3.25;;
62479;SDS011;48526;48.846;2.322;2023-01-08T00:11:30;8.25;;;4.00;;
62479;SDS011;48526;48.846;2.322;2023-01-08T00:13:56;4.75;;;4.75;;
62479;SDS011;48526;48.846;2.322;2023-01-08T00:16:21;4.25;;;4.25;;
62479;SDS011;48526;48.846;2.322;2023-01-08T00:18:47;8.50;;;6.75;;
62479;SDS011;48526;48.846;2.322;2023-01-08T00:21:12;9.00;;;6.00;;
62479;SDS011;48526;48.846;2.322;2023-01-08T00:23:38;6.50;;;4.50;;
62479;SDS011;48526;48.846;2.322;2023-01-08T00:26:05;4.00;;;4.00;;
62479;SDS011;48526;48.846;2.322;2023-01-08T00:28:32;9.25;;;5.25;;
62479;SDS011;48526;48.846;2.322;2023-01-08T05:02:18;0.75;;;0.75;;
62479;SDS011;48526;48.846;2.322;2023-01-08T05:04:43;0.75;;;0.75;;
62479;SDS011;48526;48.846;2.322;2023-01-08T05:07:09;0.25;;;0.25;;
62479;SDS011;48526;48.846;2.322;2023-01-08T05:09:35;2.00;;;1.00;;
62479;SDS011;48526;48.846;2.322;2023-01-08T05:12:00;3.00;;;1.00;;
62479;SDS011;48526;48.846;2.322;2023-01-08T05:14:26;0.50;;;0.50;;
62479;SDS011;48526;48.846;2.322;2023-01-08T05:16:51;2.75;;;1.00;;
62479;SDS011;48526;48.846;2.322;2023-01-08T05:19:16;2.50;;;1.50;;
62479;SDS011;48526;48.846;2.322;2023-01-08T05:21:42;2.50;;;1.50;;
62479;SDS011;48526;48.846;2.322;2023-01-08T05:24:07;1.00;;;1.00;;
62479;SDS011;48526;48.846;2.322;2023-01-08T05:26:33;1.00;;;1.00;;
62479;SDS011;48526;48.846;2.322;2023-01-08T05:28:59;2.00;;;0.00;;
62479;SDS011;48526;48.846;2.322;2023-01-08T05:31:24;1.00;;;1.00;;
62479;SDS011;48526;48.846;2.322;2023-01-08T05:33:50;0.00;;;0.00;;
62479;SDS011;48526;48.846;2.322;2023-01-08T05:36:15;2.00;;;0.00;;
62479;SDS011;48526;48.846;2.322;2023-01-08T05:38:41;0.00;;;0.00;;
62479;SDS011;48526;48.846;2.322;2023-01-08T05:41:09;0.00;;;0.00;;
62479;SDS011;48526;48.846;2.322;2023-01-08T05:43:35;0.25;;;0.25;;
62479;SDS011;48526;48.846;2.322;2023-01-08T05:46:01;0.00;;;0.00;;
62479;SDS011;48526;48.846;2.322;2023-01-08T05:48:28;0.00;;;0.00;;
62479;SDS011;48526;48.846;2.322;2023-01-08T05:50:54;0.00;;;0.00;;
62479;SDS011;48526;48.846;2.322;2023-01-08T05:53:20;0.75;;;0.75;;
62479;SDS011;48526;48.846;2.322;2023-01-08T05:55:45;1.75;;;0.00;;
62479;SDS011;48526;48.846;2.322;2023-01-08T05:58:12;0.00;;;0.00;;
62479;SDS011;48526;48.846;2.322;2023-01-08T06:00:37;0.75;;;0.00;;
62479;SDS011;48526;48.846;2.322;2023-01-08T06:03:03;0.75;;;0.00;;
62479;SDS011;48526;48.846;2.322;2023-01-08T06:05:29;0.00;;;0.00;;
62479;SDS011;48526;48.846;2.322;2023-01-08T06:07:56;0.00;;;0.00;;
62479;SDS011;48526;48.846;2.322;2023-01-08T06:10:22;0.00;;;0.00;;
62479;SDS011;48526;48.846;2.322;2023-01-08T06:12:47;0.00;;;0.00;;
62479;SDS011;48526;48.846;2.322;2023-01-08T06:15:14;0.00;;;0.00;;
62479;SDS011;48526;48.846;2.322;2023-01-08T06:17:40;0.00;;;0.00;;
62479;SDS011;48526;48.846;2.322;2023-01-08T06:20:06;0.00;;;0.00;;
62479;SDS011;48526;48.846;2.322;2023-01-08T06:22:32;0.00;;;0.00;;
62479;SDS011;48526;48.846;2.322;2023-01-08T06:24:57;0.00;;;0.00;;
62479;SDS011;48526;48.846;2.322;2023-01-08T06:27:23;0.00;;;0.00;;
62479;SDS011;48526;48.846;2.322;2023-01-08T06:29:48;0.00;;;0.00;;
62479;SDS011;48526;48.846;2.322;2023-01-08T06:32:14;0.00;;;0.00;;
62479;SDS011;48526;48.846;2.322;2023-01-08T06:34:40;0.75;;;0.00;;
62479;SDS011;48526;48.846;2.322;2023-01-08T06:37:06;0.25;;;0.00;;
62479;SDS011;48526;48.846;2.322;2023-01-08T06:39:32;0.00;;;0.00;;
62479;SDS011;48526;48.846;2.322;2023-01-08T06:41:57;0.00;;;0.00;;
62479;SDS011;48526;48.846;2.322;2023-01-08T06:44:23;0.25;;;0.00;;
62479;SDS011;48526;48.846;2.322;2023-01-08T06:46:50;0.00;;;0.00;;
62479;SDS011;48526;48.846;2.322;2023-01-08T06:49:15;0.00;;;0.00;;
62479;SDS011;48526;48.846;2.322;2023-01-08T06:51:41;0.00;;;0.00;;
62479;SDS011;48526;48.846;2.322;2023-01-08T06:54:07;0.00;;;0.00;;
62479;SDS011;48526;48.846;2.322;2023-01-08T06:56:33;0.00;;;0.00;;
62479;SDS011;48526;48.846;2.322;2023-01-08T06:59:00;0.00;;;0.00;;
62479;SDS011;48526;48.846;2.322;2023-01-08T07:01:26;1.00;;;0.00;;
62479;SDS011;48526;48.846;2.322;2023-01-08T07:03:52;0.00;;;0.00;;
62479;SDS011;48526;48.846;2.322;2023-01-08T07:06:19;0.00;;;0.00;;
62479;SDS011;48526;48.846;2.322;2023-01-08T07:08:46;0.00;;;0.00;;
62479;SDS011;48526;48.846;2.322;2023-01-08T07:11:15;2.00;;;1.00;;
62479;SDS011;48526;48.846;2.322;2023-01-08T07:13:40;3.00;;;0.00;;
62479;SDS011;48526;48.846;2.322;2023-01-08T07:16:06;0.00;;;0.00;;
62479;SDS011;48526;48.846;2.322;2023-01-08T07:18:33;0.00;;;0.00;;
62479;SDS011;48526;48.846;2.322;2023-01-08T07:21:00;0.25;;;0.00;;
62479;SDS011;48526;48.846;2.322;2023-01-08T07:23:26;0.00;;;0.00;;
62479;SDS011;48526;48.846;2.322;2023-01-08T07:25:52;1.00;;;1.00;;
62479;SDS011;48526;48.846;2.322;2023-01-08T07:28:17;0.00;;;0.00;;
62479;SDS011;48526;48.846;2.322;2023-01-08T07:30:43;1.00;;;1.00;;
62479;SDS011;48526;48.846;2.322;2023-01-08T07:33:08;0.00;;;0.00;;
62479;SDS011;48526;48.846;2.322;2023-01-08T07:35:34;1.00;;;0.00;;
62479;SDS011;48526;48.846;2.322;2023-01-08T07:37:59;0.00;;;0.00;;
62479;SDS011;48526;48.846;2.322;2023-01-08T07:40:25;1.00;;;0.00;;
62479;SDS011;48526;48.846;2.322;2023-01-08T07:43:00;0.00;;;0.00;;
62479;SDS011;48526;48.846;2.322;2023-01-08T07:45:28;1.00;;;0.75;;
62479;SDS011;48526;48.846;2.322;2023-01-08T07:47:57;1.00;;;0.25;;
62479;SDS011;48526;48.846;2.322;2023-01-08T07:50:24;2.00;;;0.25;;
62479;SDS011;48526;48.846;2.322;2023-01-08T07:52:49;1.00;;;1.00;;
62479;SDS011;48526;48.846;2.322;2023-01-08T07:55:15;1.00;;;1.00;;
62479;SDS011;48526;48.846;2.322;2023-01-08T07:57:40;1.00;;;1.00;;
62479;SDS011;48526;48.846;2.322;2023-01-08T08:00:06;0.00;;;0.00;;
62479;SDS011;48526;48.846;2.322;2023-01-08T08:02:32;1.50;;;0.00;;
62479;SDS011;48526;48.846;2.322;2023-01-08T08:04:57;2.00;;;0.00;;
62479;SDS011;48526;48.846;2.322;2023-01-08T08:07:23;1.75;;;1.00;;
62479;SDS011;48526;48.846;2.322;2023-01-08T08:09:50;1.50;;;0.00;;
62479;SDS011;48526;48.846;2.322;2023-01-08T08:12:15;0.00;;;0.00;;
62479;SDS011;48526;48.846;2.322;2023-01-08T08:14:40;1.00;;;1.00;;
62479;SDS011;48526;48.846;2.322;2023-01-08T08:17:06;0.25;;;0.25;;
62479;SDS011;48526;48.846;2.322;2023-01-08T08:19:31;0.00;;;0.00;;
62479;SDS011;48526;48.846;2.322;2023-01-08T08:21:57;1.00;;;1.00;;
62479;SDS011;48526;48.846;2.322;2023-01-08T08:24:22;0.00;;;0.00;;
62479;SDS011;48526;48.846;2.322;2023-01-08T08:26:49;1.00;;;0.50;;
62479;SDS011;48526;48.846;2.322;2023-01-08T08:29:14;0.75;;;0.75;;
62479;SDS011;48526;48.846;2.322;2023-01-08T08:31:40;1.50;;;0.75;;
62479;SDS011;48526;48.846;2.322;2023-01-08T08:34:06;1.75;;;0.00;;
62479;SDS011;48526;48.846;2.322;2023-01-08T08:36:32;1.50;;;0.00;;
62479;SDS011;48526;48.846;2.322;2023-01-08T08:38:57;1.00;;;0.00;;
62479;SDS011;48526;48.846;2.322;2023-01-08T08:41:23;1.00;;;0.00;;
62479;SDS011;48526;48.846;2.322;2023-01-08T08:43:49;1.25;;;1.25;;
62479;SDS011;48526;48.846;2.322;2023-01-08T08:46:15;0.00;;;0.00;;
62479;SDS011;48526;48.846;2.322;2023-01-08T08:48:43;0.00;;;0.00;;
62479;SDS011;48526;48.846;2.322;2023-01-08T08:51:09;0.25;;;0.00;;
62479;SDS011;48526;48.846;2.322;2023-01-08T08:53:35;2.00;;;0.50;;
62479;SDS011;48526;48.846;2.322;2023-01-08T08:56:03;0.75;;;0.75;;
62479;SDS011;48526;48.846;2.322;2023-01-08T08:58:32;0.00;;;0.00;;
62479;SDS011;48526;48.846;2.322;2023-01-08T09:01:00;1.00;;;1.00;;
62479;SDS011;48526;48.846;2.322;2023-01-08T09:03:26;0.75;;;0.00;;
62479;SDS011;48526;48.846;2.322;2023-01-08T09:05:52;0.00;;;0.00;;
62479;SDS011;48526;48.846;2.322;2023-01-08T09:08:17;0.00;;;0.00;;
62479;SDS011;48526;48.846;2.322;2023-01-08T09:10:43;0.00;;;0.00;;
62479;SDS011;48526;48.846;2.322;2023-01-08T09:13:08;0.75;;;0.00;;
62479;SDS011;48526;48.846;2.322;2023-01-08T09:15:34;0.00;;;0.00;;
62479;SDS011;48526;48.846;2.322;2023-01-08T09:18:00;1.50;;;0.00;;
62479;SDS011;48526;48.846;2.322;2023-01-08T09:20:26;0.75;;;0.75;;
62479;SDS011;48526;48.846;2.322;2023-01-08T09:22:52;1.00;;;1.00;;
62479;SDS011;48526;48.846;2.322;2023-01-08T09:25:17;0.00;;;0.00;;
62479;SDS011;48526;48.846;2.322;2023-01-08T09:27:43;0.00;;;0.00;;
62479;SDS011;48526;48.846;2.322;2023-01-08T09:30:09;1.00;;;1.00;;
62479;SDS011;48526;48.846;2.322;2023-01-08T09:32:34;0.00;;;0.00;;
62479;SDS011;48526;48.846;2.322;2023-01-08T09:35:00;0.25;;;0.00;;
62479;SDS011;48526;48.846;2.322;2023-01-08T09:37:25;0.00;;;0.00;;
62479;SDS011;48526;48.846;2.322;2023-01-08T09:39:50;0.00;;;0.00;;
62479;SDS011;48526;48.846;2.322;2023-01-08T09:42:18;0.00;;;0.00;;
62479;SDS011;48526;48.846;2.322;2023-01-08T09:44:47;2.00;;;0.00;;
62479;SDS011;48526;48.846;2.322;2023-01-08T09:47:35;2.00;;;1.00;;
62479;SDS011;48526;48.846;2.322;2023-01-08T09:50:04;0.00;;;0.00;;
62479;SDS011;48526;48.846;2.322;2023-01-08T09:52:31;0.25;;;0.25;;
62479;SDS011;48526;48.846;2.322;2023-01-08T09:54:57;1.75;;;0.75;;
62479;SDS011;48526;48.846;2.322;2023-01-08T09:57:24;1.00;;;1.00;;
62479;SDS011;48526;48.846;2.322;2023-01-08T09:59:49;0.00;;;0.00;;
62479;SDS011;48526;48.846;2.322;2023-01-08T10:02:16;0.00;;;0.00;;
62479;SDS011;48526;48.846;2.322;2023-01-08T10:04:43;0.00;;;0.00;;
62479;SDS011;48526;48.846;2.322;2023-01-08T10:07:11;0.00;;;0.00;;
62479;SDS011;48526;48.846;2.322;2023-01-08T10:09:45;1.50;;;0.00;;
62479;SDS011;48526;48.846;2.322;2023-01-08T10:12:10;0.00;;;0.00;;
62479;SDS011;48526;48.846;2.322;2023-01-08T10:14:37;1.00;;;1.00;;
62479;SDS011;48526;48.846;2.322;2023-01-08T10:17:06;2.00;;;0.00;;
62479;SDS011;48526;48.846;2.322;2023-01-08T10:19:36;0.00;;;0.00;;
62479;SDS011;48526;48.846;2.322;2023-01-08T10:22:01;0.50;;;0.00;;
62479;SDS011;48526;48.846;2.322;2023-01-08T10:24:34;0.00;;;0.00;;
62479;SDS011;48526;48.846;2.322;2023-01-08T10:27:05;3.75;;;0.00;;
62479;SDS011;48526;48.846;2.322;2023-01-08T10:29:48;1.50;;;1.50;;
62479;SDS011;48526;48.846;2.322;2023-01-08T10:32:16;0.00;;;0.00;;
62479;SDS011;48526;48.846;2.322;2023-01-08T10:35:13;0.00;;;0.00;;
62479;SDS011;48526;48.846;2.322;2023-01-08T10:37:41;2.00;;;0.00;;
62479;SDS011;48526;48.846;2.322;2023-01-08T10:40:26;0.75;;;0.75;;
62479;SDS011;48526;48.846;2.322;2023-01-08T10:42:53;2.00;;;1.00;;
62479;SDS011;48526;48.846;2.322;2023-01-08T10:45:21;0.25;;;0.25;;
62479;SDS011;48526;48.846;2.322;2023-01-08T10:47:48;1.25;;;1.00;;
62479;SDS011;48526;48.846;2.322;2023-01-08T10:50:23;0.00;;;0.00;;
62479;SDS011;48526;48.846;2.322;2023-01-08T10:52:54;0.50;;;0.50;;
62479;SDS011;48526;48.846;2.322;2023-01-08T10:55:22;1.00;;;1.00;;
62479;SDS011;48526;48.846;2.322;2023-01-08T11:00:27;1.00;;;1.00;;
62479;SDS011;48526;48.846;2.322;2023-01-08T11:02:54;2.50;;;1.50;;
62479;SDS011;48526;48.846;2.322;2023-01-08T11:05:28;2.25;;;1.00;;
62479;SDS011;48526;48.846;2.322;2023-01-08T11:07:57;3.00;;;1.50;;
62479;SDS011;48526;48.846;2.322;2023-01-08T11:10:24;4.50;;;2.00;;
62479;SDS011;48526;48.846;2.322;2023-01-08T11:12:54;0.25;;;0.25;;
62479;SDS011;48526;48.846;2.322;2023-01-08T11:15:29;1.75;;;1.75;;
62479;SDS011;48526;48.846;2.322;2023-01-08T11:18:18;2.75;;;0.75;;
62479;SDS011;48526;48.846;2.322;2023-01-08T11:20:48;0.25;;;0.25;;
62479;SDS011;48526;48.846;2.322;2023-01-08T11:23:22;1.00;;;1.00;;
62479;SDS011;48526;48.846;2.322;2023-01-08T11:31:18;1.00;;;1.00;;
62479;SDS011;48526;48.846;2.322;2023-01-08T11:33:46;2.00;;;1.00;;
62479;SDS011;48526;48.846;2.322;2023-01-08T11:36:19;3.75;;;1.00;;
62479;SDS011;48526;48.846;2.322;2023-01-08T11:38:49;1.00;;;1.00;;
62479;SDS011;48526;48.846;2.322;2023-01-08T11:50:12;1.25;;;0.25;;
62479;SDS011;48526;48.846;2.322;2023-01-08T11:55:42;1.00;;;0.75;;
62479;SDS011;48526;48.846;2.322;2023-01-08T11:58:29;2.50;;;0.75;;
62479;SDS011;48526;48.846;2.322;2023-01-08T12:01:19;3.00;;;1.75;;
62479;SDS011;48526;48.846;2.322;2023-01-08T12:09:43;1.00;;;1.00;;
62479;SDS011;48526;48.846;2.322;2023-01-08T12:20:25;3.75;;;2.00;;
62479;SDS011;48526;48.846;2.322;2023-01-08T12:34:01;5.50;;;2.00;;
62479;SDS011;48526;48.846;2.322;2023-01-08T12:36:35;0.00;;;0.00;;
62479;SDS011;48526;48.846;2.322;2023-01-08T12:39:14;1.75;;;1.50;;
62479;SDS011;48526;48.846;2.322;2023-01-08T12:41:46;3.00;;;1.50;;
62479;SDS011;48526;48.846;2.322;2023-01-08T12:44:13;2.00;;;1.00;;
62479;SDS011;48526;48.846;2.322;2023-01-08T12:46:46;2.00;;;1.00;;
62479;SDS011;48526;48.846;2.322;2023-01-08T12:49:15;1.00;;;1.00;;
62479;SDS011;48526;48.846;2.322;2023-01-08T12:54:47;1.00;;;0.00;;
62479;SDS011;48526;48.846;2.322;2023-01-08T12:57:29;2.00;;;1.50;;
62479;SDS011;48526;48.846;2.322;2023-01-08T13:03:03;1.50;;;1.50;;
62479;SDS011;48526;48.846;2.322;2023-01-08T13:05:34;6.50;;;2.00;;
62479;SDS011;48526;48.846;2.322;2023-01-08T13:08:01;3.25;;;0.50;;
62479;SDS011;48526;48.846;2.322;2023-01-08T13:10:38;1.00;;;1.00;;
62479;SDS011;48526;48.846;2.322;2023-01-08T13:13:05;2.00;;;0.75;;
62479;SDS011;48526;48.846;2.322;2023-01-08T13:15:33;2.25;;;0.75;;
62479;SDS011;48526;48.846;2.322;2023-01-08T13:18:04;1.00;;;1.00;;
62479;SDS011;48526;48.846;2.322;2023-01-08T13:20:52;1.75;;;0.00;;
62479;SDS011;48526;48.846;2.322;2023-01-08T13:23:21;1.50;;;1.50;;
62479;SDS011;48526;48.846;2.322;2023-01-08T13:25:52;5.00;;;1.25;;
62479;SDS011;48526;48.846;2.322;2023-01-08T13:28:37;0.00;;;0.00;;
62479;SDS011;48526;48.846;2.322;2023-01-08T13:31:23;3.25;;;1.75;;
62479;SDS011;48526;48.846;2.322;2023-01-08T13:33:51;1.25;;;1.25;;
62479;SDS011;48526;48.846;2.322;2023-01-08T13:41:28;3.50;;;1.50;;
62479;SDS011;48526;48.846;2.322;2023-01-08T13:43:57;2.00;;;2.00;;
62479;SDS011;48526;48.846;2.322;2023-01-08T13:46:25;2.00;;;0.50;;
62479;SDS011;48526;48.846;2.322;2023-01-08T13:51:28;0.00;;;0.00;;
62479;SDS011;48526;48.846;2.322;2023-01-08T13:53:57;4.00;;;2.00;;
62479;SDS011;48526;48.846;2.322;2023-01-08T13:56:29;0.50;;;0.50;;
62479;SDS011;48526;48.846;2.322;2023-01-08T13:58:55;1.50;;;0.00;;
62479;SDS011;48526;48.846;2.322;2023-01-08T14:01:21;0.00;;;0.00;;
62479;SDS011;48526;48.846;2.322;2023-01-08T14:03:49;1.00;;;0.00;;
62479;SDS011;48526;48.846;2.322;2023-01-08T14:08:56;1.75;;;1.00;;
62479;SDS011;48526;48.846;2.322;2023-01-08T14:11:33;0.00;;;0.00;;
62479;SDS011;48526;48.846;2.322;2023-01-08T14:14:15;2.75;;;1.75;;
62479;SDS011;48526;48.846;2.322;2023-01-08T14:16:42;2.00;;;2.00;;
62479;SDS011;48526;48.846;2.322;2023-01-08T14:19:07;2.25;;;0.00;;
62479;SDS011;48526;48.846;2.322;2023-01-08T14:21:39;0.75;;;0.25;;
62479;SDS011;48526;48.846;2.322;2023-01-08T14:24:04;0.00;;;0.00;;
62479;SDS011;48526;48.846;2.322;2023-01-08T14:26:32;0.75;;;0.00;;
62479;SDS011;48526;48.846;2.322;2023-01-08T14:29:02;2.75;;;1.00;;
62479;SDS011;48526;48.846;2.322;2023-01-08T14:31:28;0.00;;;0.00;;
62479;SDS011;48526;48.846;2.322;2023-01-08T14:33:54;0.00;;;0.00;;
62479;SDS011;48526;48.846;2.322;2023-01-08T14:36:21;1.00;;;1.00;;
62479;SDS011;48526;48.846;2.322;2023-01-08T14:38:47;0.00;;;0.00;;
62479;SDS011;48526;48.846;2.322;2023-01-08T14:41:25;1.25;;;1.25;;
62479;SDS011;48526;48.846;2.322;2023-01-08T14:44:16;1.00;;;1.00;;
62479;SDS011;48526;48.846;2.322;2023-01-08T14:46:42;2.25;;;2.00;;
62479;SDS011;48526;48.846;2.322;2023-01-08T14:49:11;4.00;;;1.00;;
62479;SDS011;48526;48.846;2.322;2023-01-08T14:51:53;0.00;;;0.00;;
62479;SDS011;48526;48.846;2.322;2023-01-08T14:54:21;1.00;;;1.00;;
62479;SDS011;48526;48.846;2.322;2023-01-08T14:56:51;1.00;;;1.00;;
62479;SDS011;48526;48.846;2.322;2023-01-08T14:59:18;0.00;;;0.00;;
62479;SDS011;48526;48.846;2.322;2023-01-08T15:01:50;1.75;;;0.00;;
62479;SDS011;48526;48.846;2.322;2023-01-08T15:04:20;3.00;;;1.50;;
62479;SDS011;48526;48.846;2.322;2023-01-08T15:06:47;3.25;;;1.00;;
62479;SDS011;48526;48.846;2.322;2023-01-08T15:09:28;2.75;;;1.00;;
62479;SDS011;48526;48.846;2.322;2023-01-08T15:11:56;2.00;;;1.00;;
62479;SDS011;48526;48.846;2.322;2023-01-08T15:14:23;0.00;;;0.00;;
62479;SDS011;48526;48.846;2.322;2023-01-08T15:16:50;3.25;;;1.00;;
62479;SDS011;48526;48.846;2.322;2023-01-08T15:19:21;2.00;;;2.00;;
62479;SDS011;48526;48.846;2.322;2023-01-08T15:21:53;1.75;;;1.00;;
62479;SDS011;48526;48.846;2.322;2023-01-08T15:24:28;2.00;;;2.00;;
62479;SDS011;48526;48.846;2.322;2023-01-08T15:26:56;2.00;;;2.00;;
62479;SDS011;48526;48.846;2.322;2023-01-08T15:29:23;3.00;;;1.00;;
62479;SDS011;48526;48.846;2.322;2023-01-08T15:31:52;2.50;;;2.00;;
62479;SDS011;48526;48.846;2.322;2023-01-08T15:34:19;1.25;;;1.00;;
62479;SDS011;48526;48.846;2.322;2023-01-08T15:36:48;4.00;;;1.25;;
62479;SDS011;48526;48.846;2.322;2023-01-08T15:39:13;1.25;;;1.25;;
62479;SDS011;48526;48.846;2.322;2023-01-08T15:41:39;3.50;;;2.25;;
62479;SDS011;48526;48.846;2.322;2023-01-08T15:44:23;2.00;;;2.00;;
62479;SDS011;48526;48.846;2.322;2023-01-08T15:46:52;2.00;;;1.00;;
62479;SDS011;48526;48.846;2.322;2023-01-08T15:49:18;2.00;;;2.00;;
62479;SDS011;48526;48.846;2.322;2023-01-08T15:51:45;4.00;;;1.25;;
62479;SDS011;48526;48.846;2.322;2023-01-08T15:54:12;2.50;;;1.00;;
62479;SDS011;48526;48.846;2.322;2023-01-08T15:56:38;2.00;;;2.00;;
62479;SDS011;48526;48.846;2.322;2023-01-08T15:59:03;1.00;;;1.00;;
62479;SDS011;48526;48.846;2.322;2023-01-08T16:01:29;2.75;;;1.25;;
62479;SDS011;48526;48.846;2.322;2023-01-08T16:03:56;3.00;;;2.00;;
62479;SDS011;48526;48.846;2.322;2023-01-08T16:06:23;2.75;;;1.75;;
62479;SDS011;48526;48.846;2.322;2023-01-08T16:08:48;1.00;;;1.00;;
62479;SDS011;48526;48.846;2.322;2023-01-08T16:11:16;1.00;;;1.00;;
62479;SDS011;48526;48.846;2.322;2023-01-08T16:13:42;2.00;;;2.00;;
62479;SDS011;48526;48.846;2.322;2023-01-08T16:16:08;5.00;;;2.00;;
62479;SDS011;48526;48.846;2.322;2023-01-08T16:18:35;0.25;;;0.25;;
62479;SDS011;48526;48.846;2.322;2023-01-08T16:21:02;6.50;;;3.00;;
62479;SDS011;48526;48.846;2.322;2023-01-08T16:23:28;4.50;;;3.50;;
62479;SDS011;48526;48.846;2.322;2023-01-08T16:25:54;5.75;;;3.00;;
62479;SDS011;48526;48.846;2.322;2023-01-08T16:28:19;3.25;;;2.00;;
62479;SDS011;48526;48.846;2.322;2023-01-08T16:30:44;1.00;;;1.00;;
62479;SDS011;48526;48.846;2.322;2023-01-08T16:33:10;2.00;;;1.00;;
62479;SDS011;48526;48.846;2.322;2023-01-08T16:35:35;2.75;;;1.75;;
62479;SDS011;48526;48.846;2.322;2023-01-08T16:38:00;1.00;;;1.00;;
62479;SDS011;48526;48.846;2.322;2023-01-08T16:40:26;1.25;;;0.25;;
62479;SDS011;48526;48.846;2.322;2023-01-08T16:42:51;4.00;;;1.75;;
62479;SDS011;48526;48.846;2.322;2023-01-08T16:45:18;2.25;;;1.00;;
62479;SDS011;48526;48.846;2.322;2023-01-08T16:47:43;1.50;;;1.50;;
62479;SDS011;48526;48.846;2.322;2023-01-08T16:50:09;1.75;;;1.00;;
62479;SDS011;48526;48.846;2.322;2023-01-08T16:52:36;3.25;;;1.00;;
62479;SDS011;48526;48.846;2.322;2023-01-08T16:55:02;1.25;;;1.25;;
62479;SDS011;48526;48.846;2.322;2023-01-08T16:57:28;2.50;;;1.50;;
62479;SDS011;48526;48.846;2.322;2023-01-08T16:59:54;1.00;;;1.00;;
62479;SDS011;48526;48.846;2.322;2023-01-08T17:02:19;2.50;;;2.50;;
62479;SDS011;48526;48.846;2.322;2023-01-08T17:04:45;2.50;;;1.50;;
62479;SDS011;48526;48.846;2.322;2023-01-08T17:07:14;1.50;;;1.00;;
62479;SDS011;48526;48.846;2.322;2023-01-08T17:09:39;2.00;;;2.00;;
62479;SDS011;48526;48.846;2.322;2023-01-08T17:12:04;1.00;;;1.00;;
62479;SDS011;48526;48.846;2.322;2023-01-08T17:14:30;2.50;;;1.00;;
62479;SDS011;48526;48.846;2.322;2023-01-08T17:16:55;0.50;;;0.25;;
62479;SDS011;48526;48.846;2.322;2023-01-08T17:19:21;1.75;;;1.75;;
62479;SDS011;48526;48.846;2.322;2023-01-08T17:21:48;1.75;;;1.75;;
62479;SDS011;48526;48.846;2.322;2023-01-08T17:24:14;3.75;;;1.25;;
62479;SDS011;48526;48.846;2.322;2023-01-08T17:26:39;1.00;;;1.00;;
62479;SDS011;48526;48.846;2.322;2023-01-08T17:29:05;1.00;;;1.00;;
62479;SDS011;48526;48.846;2.322;2023-01-08T17:31:30;3.75;;;2.00;;
62479;SDS011;48526;48.846;2.322;2023-01-08T17:34:03;2.75;;;1.00;;
62479;SDS011;48526;48.846;2.322;2023-01-08T17:36:30;2.50;;;1.75;;
62479;SDS011;48526;48.846;2.322;2023-01-08T17:38:56;2.25;;;2.25;;
62479;SDS011;48526;48.846;2.322;2023-01-08T17:41:21;1.75;;;1.75;;
62479;SDS011;48526;48.846;2.322;2023-01-08T17:44:06;0.50;;;0.50;;
62479;SDS011;48526;48.846;2.322;2023-01-08T17:46:34;1.00;;;1.00;;
62479;SDS011;48526;48.846;2.322;2023-01-08T17:49:01;1.25;;;0.75;;
62479;SDS011;48526;48.846;2.322;2023-01-08T17:51:28;0.75;;;0.75;;
62479;SDS011;48526;48.846;2.322;2023-01-08T17:53:56;3.00;;;2.00;;
62479;SDS011;48526;48.846;2.322;2023-01-08T17:56:21;1.00;;;1.00;;
62479;SDS011;48526;48.846;2.322;2023-01-08T17:58:50;1.75;;;1.00;;
62479;SDS011;48526;48.846;2.322;2023-01-08T18:01:16;2.00;;;2.00;;
62479;SDS011;48526;48.846;2.322;2023-01-08T18:03:42;1.00;;;1.00;;
62479;SDS011;48526;48.846;2.322;2023-01-08T18:06:09;1.75;;;1.00;;
62479;SDS011;48526;48.846;2.322;2023-01-08T18:08:35;2.00;;;1.50;;
62479;SDS011;48526;48.846;2.322;2023-01-08T18:11:03;2.00;;;0.75;;
62479;SDS011;48526;48.846;2.322;2023-01-08T18:13:30;2.00;;;1.75;;
62479;SDS011;48526;48.846;2.322;2023-01-08T18:16:06;2.75;;;1.75;;
62479;SDS011;48526;48.846;2.322;2023-01-08T18:18:33;1.00;;;1.00;;
62479;SDS011;48526;48.846;2.322;2023-01-08T18:20:59;2.00;;;2.00;;
62479;SDS011;48526;48.846;2.322;2023-01-08T18:23:25;2.50;;;2.50;;
62479;SDS011;48526;48.846;2.322;2023-01-08T18:25:50;0.75;;;0.75;;
62479;SDS011;48526;48.846;2.322;2023-01-08T18:28:16;3.75;;;1.00;;
62479;SDS011;48526;48.846;2.322;2023-01-08T18:30:42;1.25;;;1.00;;
62479;SDS011;48526;48.846;2.322;2023-01-08T18:33:09;0.25;;;0.25;;
62479;SDS011;48526;48.846;2.322;2023-01-08T18:35:36;2.00;;;1.00;;
62479;SDS011;48526;48.846;2.322;2023-01-08T18:38:01;1.00;;;1.00;;
62479;SDS011;48526;48.846;2.322;2023-01-08T18:40:26;2.75;;;1.75;;
62479;SDS011;48526;48.846;2.322;2023-01-08T18:42:52;1.00;;;0.25;;
62479;SDS011;48526;48.846;2.322;2023-01-08T18:45:17;1.25;;;1.25;;
62479;SDS011;48526;48.846;2.322;2023-01-08T18:47:46;3.00;;;1.00;;
62479;SDS011;48526;48.846;2.322;2023-01-08T18:50:11;1.75;;;0.75;;
62479;SDS011;48526;48.846;2.322;2023-01-08T18:52:40;1.25;;;1.00;;
62479;SDS011;48526;48.846;2.322;2023-01-08T18:55:06;1.25;;;1.25;;
62479;SDS011;48526;48.846;2.322;2023-01-08T18:57:32;3.00;;;2.00;;
62479;SDS011;48526;48.846;2.322;2023-01-08T19:07:56;2.25;;;1.00;;
62479;SDS011;48526;48.846;2.322;2023-01-08T20:03:24;1.00;;;1.00;;
62479;SDS011;48526;48.846;2.322;2023-01-08T20:20:24;2.00;;;1.00;;
62479;SDS011;48526;48.846;2.322;2023-01-08T20:29:13;2.00;;;2.00;;
62479;SDS011;48526;48.846;2.322;2023-01-08T20:31:47;5.00;;;3.00;;
62479;SDS011;48526;48.846;2.322;2023-01-08T20:34:40;1.00;;;1.00;;
62479;SDS011;48526;48.846;2.322;2023-01-08T20:37:06;1.00;;;1.00;;
62479;SDS011;48526;48.846;2.322;2023-01-08T20:39:31;1.00;;;1.00;;
62479;SDS011;48526;48.846;2.322;2023-01-08T20:41:57;3.00;;;1.50;;
62479;SDS011;48526;48.846;2.322;2023-01-08T20:44:23;1.00;;;1.00;;
62479;SDS011;48526;48.846;2.322;2023-01-08T20:47:11;1.00;;;1.00;;
62479;SDS011;48526;48.846;2.322;2023-01-08T20:49:58;2.00;;;0.00;;
62479;SDS011;48526;48.846;2.322;2023-01-08T20:52:58;0.00;;;0.00;;
62479;SDS011;48526;48.846;2.322;2023-01-08T20:55:22;1.25;;;1.00;;
62479;SDS011;48526;48.846;2.322;2023-01-08T20:57:48;2.50;;;1.00;;
62479;SDS011;48526;48.846;2.322;2023-01-08T21:00:21;1.00;;;1.00;;
62479;SDS011;48526;48.846;2.322;2023-01-08T21:06:20;1.00;;;1.00;;
62479;SDS011;48526;48.846;2.322;2023-01-08T21:12:38;0.50;;;0.25;;
62479;SDS011;48526;48.846;2.322;2023-01-08T21:28:27;1.00;;;1.00;;
62479;SDS011;48526;48.846;2.322;2023-01-08T21:41:25;0.25;;;0.25;;
62479;SDS011;48526;48.846;2.322;2023-01-08T21:47:57;0.50;;;0.50;;
62479;SDS011;48526;48.846;2.322;2023-01-08T21:51:30;3.00;;;0.00;;
62479;SDS011;48526;48.846;2.322;2023-01-08T22:12:06;0.75;;;0.75;;
62479;SDS011;48526;48.846;2.322;2023-01-08T22:49:58;1.00;;;1.00;;
62479;SDS011;48526;48.846;2.322;2023-01-08T22:52:48;0.00;;;0.00;;
62479;SDS011;48526;48.846;2.322;2023-01-08T22:55:14;0.25;;;0.25;;
62479;SDS011;48526;48.846;2.322;2023-01-08T22:57:39;0.50;;;0.50;;
62479;SDS011;48526;48.846;2.322;2023-01-08T23:00:06;0.75;;;0.75;;
62479;SDS011;48526;48.846;2.322;2023-01-08T23:02:34;2.00;;;0.00;;
62479;SDS011;48526;48.846;2.322;2023-01-08T23:05:03;2.00;;;1.25;;
62479;SDS011;48526;48.846;2.322;2023-01-08T23:07:30;1.25;;;0.00;;
62479;SDS011;48526;48.846;2.322;2023-01-08T23:09:56;1.00;;;0.00;;
62479;SDS011;48526;48.846;2.322;2023-01-08T23:12:21;0.00;;;0.00;;
62479;SDS011;48526;48.846;2.322;2023-01-08T23:14:47;1.00;;;1.00;;
62479;SDS011;48526;48.846;2.322;2023-01-08T23:17:12;0.50;;;0.50;;
62479;SDS011;48526;48.846;2.322;2023-01-08T23:19:38;1.00;;;1.00;;